createdAt,value
2022-12-24T00:02:17.348Z,81.28
2022-12-24T00:05:04.769Z,81.05
2022-12-24T00:08:02.210Z,81.08
2022-12-24T00:10:53.418Z,80.66
2022-12-24T00:13:43.189Z,81.28
2022-12-24T00:16:30.130Z,81.05
2022-12-24T00:19:17.023Z,81.28
2022-12-24T00:22:03.831Z,81.36
2022-12-24T00:24:50.729Z,80.69
2022-12-24T00:27:37.561Z,80.63
2022-12-24T00:30:24.386Z,80.97
2022-12-24T00:33:11.342Z,81.24
2022-12-24T00:35:58.105Z,81.22
2022-12-24T00:38:45.308Z,81.19
2022-12-24T00:41:32.165Z,80.38
2022-12-24T00:44:18.961Z,80.89
2022-12-24T00:47:11.856Z,81.04
2022-12-24T00:49:59.149Z,80.79
2022-12-24T00:52:47.385Z,80.99
2022-12-24T00:55:34.161Z,80.46
2022-12-24T00:58:20.966Z,80.90
2022-12-24T01:01:09.173Z,80.30
2022-12-24T01:04:15.240Z,80.92
2022-12-24T01:07:02.035Z,80.94
2022-12-24T01:09:48.894Z,80.82
2022-12-24T01:12:36.479Z,80.43
2022-12-24T01:15:23.359Z,80.26
2022-12-24T01:18:12.908Z,80.51
2022-12-24T01:21:03.447Z,80.56
2022-12-24T01:23:50.252Z,80.21
2022-12-24T01:26:43.210Z,80.82
2022-12-24T01:29:30.198Z,80.58
2022-12-24T01:32:17.089Z,80.24
2022-12-24T01:35:04.397Z,80.60
2022-12-24T01:37:51.200Z,80.55
2022-12-24T01:40:59.860Z,80.29
2022-12-24T01:43:46.810Z,80.62
2022-12-24T01:46:35.898Z,80.60
2022-12-24T01:49:22.643Z,80.45
2022-12-24T01:52:14.029Z,80.12
2022-12-24T01:55:05.258Z,80.31
2022-12-24T01:57:57.034Z,80.09
2022-12-24T02:00:46.462Z,79.84
2022-12-24T02:03:33.438Z,80.45
2022-12-24T02:06:21.039Z,80.26
2022-12-24T02:09:10.907Z,80.22
2022-12-24T02:11:57.903Z,80.73
2022-12-24T02:14:44.807Z,80.40
2022-12-24T02:17:32.131Z,79.87
2022-12-24T02:20:51.592Z,80.57
2022-12-24T02:23:57.553Z,79.99
2022-12-24T02:27:06.044Z,79.80
2022-12-24T02:30:07.490Z,80.24
2022-12-24T02:32:58.125Z,80.44
2022-12-24T02:35:58.328Z,80.00
2022-12-24T02:39:07.996Z,79.93
2022-12-24T02:42:09.001Z,79.88
2022-12-24T02:44:59.669Z,80.33
2022-12-24T02:47:46.848Z,80.24
2022-12-24T02:50:33.656Z,79.57
2022-12-24T02:53:20.452Z,80.36
2022-12-24T02:56:37.880Z,79.93
2022-12-24T03:00:01.699Z,79.56
2022-12-24T03:03:30.171Z,79.70
2022-12-24T03:06:25.003Z,80.21
2022-12-24T03:09:24.513Z,79.55
2022-12-24T03:12:18.008Z,79.42
2022-12-24T03:15:07.097Z,79.79
2022-12-24T03:17:57.433Z,79.68
2022-12-24T03:20:47.779Z,79.39
2022-12-24T03:23:34.935Z,79.96
2022-12-24T03:26:24.822Z,79.48
2022-12-24T03:29:14.618Z,79.91
2022-12-24T03:32:03.278Z,79.21
2022-12-24T03:34:50.170Z,79.27
2022-12-24T03:37:37.066Z,79.22
2022-12-24T03:40:23.846Z,79.28
2022-12-24T03:43:10.694Z,79.87
2022-12-24T03:45:57.647Z,79.72
2022-12-24T03:48:44.439Z,79.96
2022-12-24T03:51:33.206Z,79.01
2022-12-24T03:54:19.982Z,79.51
2022-12-24T03:57:06.802Z,79.66
2022-12-24T03:59:53.721Z,79.65
2022-12-24T04:02:40.864Z,79.39
2022-12-24T04:05:27.798Z,79.72
2022-12-24T04:08:14.656Z,79.64
2022-12-24T04:11:07.729Z,79.61
2022-12-24T04:13:56.446Z,79.76
2022-12-24T04:16:43.376Z,79.73
2022-12-24T04:19:30.276Z,79.39
2022-12-24T04:22:17.227Z,79.76
2022-12-24T04:25:04.222Z,78.98
2022-12-24T04:27:50.983Z,79.33
2022-12-24T04:30:41.630Z,79.59
2022-12-24T04:33:28.660Z,79.40
2022-12-24T04:36:17.508Z,79.33
2022-12-24T04:39:04.319Z,79.79
2022-12-24T04:41:51.146Z,79.00
2022-12-24T04:44:38.008Z,79.42
2022-12-24T04:47:24.759Z,79.23
2022-12-24T04:50:14.724Z,79.58
2022-12-24T04:53:01.505Z,79.58
2022-12-24T04:55:48.291Z,79.51
2022-12-24T04:58:35.075Z,79.31
2022-12-24T05:01:28.496Z,79.23
2022-12-24T05:04:15.366Z,79.76
2022-12-24T05:07:02.167Z,79.68
2022-12-24T05:09:52.019Z,79.23
2022-12-24T05:12:38.793Z,79.92
2022-12-24T05:15:25.791Z,79.60
2022-12-24T05:18:12.591Z,79.48
2022-12-24T05:20:59.355Z,79.25
2022-12-24T05:24:04.967Z,79.21
2022-12-24T05:26:53.624Z,79.68
2022-12-24T05:29:40.444Z,79.49
2022-12-24T05:32:28.808Z,79.41
2022-12-24T05:35:15.762Z,79.60
2022-12-24T05:38:02.705Z,79.79
2022-12-24T05:40:49.513Z,79.38
2022-12-24T05:43:37.172Z,79.43
2022-12-24T05:46:28.078Z,79.40
2022-12-24T05:49:15.085Z,79.62
2022-12-24T05:52:03.877Z,79.63
2022-12-24T05:54:50.709Z,79.46
2022-12-24T05:57:39.881Z,79.31
2022-12-24T06:00:26.563Z,79.41
2022-12-24T06:03:13.404Z,79.34
2022-12-24T06:06:20.878Z,79.40
2022-12-24T06:09:10.500Z,79.72
2022-12-24T06:11:57.316Z,79.13
2022-12-24T06:14:44.191Z,79.33
2022-12-24T06:17:33.912Z,79.74
2022-12-24T06:20:20.766Z,79.57
2022-12-24T06:23:08.157Z,79.35
2022-12-24T06:25:57.183Z,79.57
2022-12-24T06:28:44.722Z,79.33
2022-12-24T06:31:31.577Z,79.29
2022-12-24T06:34:18.418Z,79.14
2022-12-24T06:37:05.788Z,79.63
2022-12-24T06:39:52.546Z,79.34
2022-12-24T06:42:39.370Z,79.69
2022-12-24T06:45:26.372Z,79.75
2022-12-24T06:48:13.730Z,79.71
2022-12-24T06:51:03.270Z,79.37
2022-12-24T06:53:56.048Z,79.50
2022-12-24T06:56:43.073Z,79.79
2022-12-24T06:59:33.046Z,79.60
2022-12-24T07:02:19.948Z,79.35
2022-12-24T07:05:10.195Z,79.45
2022-12-24T07:07:57.279Z,79.41
2022-12-24T07:10:54.330Z,79.25
2022-12-24T07:13:41.521Z,79.52
2022-12-24T07:16:28.431Z,79.41
2022-12-24T07:19:15.770Z,79.48
2022-12-24T07:22:07.796Z,79.39
2022-12-24T07:25:04.183Z,79.30
2022-12-24T07:27:51.156Z,79.30
2022-12-24T07:30:38.014Z,79.71
2022-12-24T07:33:28.983Z,79.49
2022-12-24T07:36:21.071Z,79.52
2022-12-24T07:39:07.880Z,79.45
2022-12-24T07:41:54.772Z,79.55
2022-12-24T07:44:41.592Z,79.44
2022-12-24T07:47:28.403Z,79.31
2022-12-24T07:50:20.361Z,79.52
2022-12-24T07:53:09.557Z,79.23
2022-12-24T07:59:52.165Z,79.36
2022-12-24T08:03:18.464Z,79.60
2022-12-24T08:06:05.557Z,79.43
2022-12-24T08:08:52.378Z,79.43
2022-12-24T08:11:39.156Z,79.45
2022-12-24T08:14:25.929Z,79.18
2022-12-24T08:17:12.693Z,79.39
2022-12-24T08:19:59.451Z,79.48
2022-12-24T08:22:46.184Z,79.40
2022-12-24T08:25:32.972Z,79.28
2022-12-24T08:28:21.360Z,79.34
2022-12-24T08:31:08.573Z,79.41
2022-12-24T08:33:55.465Z,79.39
2022-12-24T08:36:42.291Z,79.17
2022-12-24T08:39:29.057Z,79.66
2022-12-24T08:42:18.711Z,79.57
2022-12-24T08:45:08.393Z,79.67
2022-12-24T08:47:55.157Z,79.32
2022-12-24T08:50:42.674Z,79.60
2022-12-24T08:53:29.455Z,79.48
2022-12-24T08:56:16.737Z,79.38
2022-12-24T08:59:06.628Z,79.52
2022-12-24T09:01:53.470Z,79.58
2022-12-24T09:04:40.544Z,79.69
2022-12-24T09:07:30.069Z,79.42
2022-12-24T09:10:17.187Z,79.65
2022-12-24T09:13:04.013Z,79.95
2022-12-24T09:15:54.799Z,79.74
2022-12-24T09:18:41.689Z,79.49
2022-12-24T09:21:31.852Z,79.60
2022-12-24T09:24:18.520Z,79.58
2022-12-24T09:27:05.297Z,79.80
2022-12-24T09:29:52.097Z,79.53
2022-12-24T09:32:38.909Z,79.52
2022-12-24T09:35:25.702Z,79.68
2022-12-24T09:38:12.453Z,79.97
2022-12-24T09:41:06.974Z,79.88
2022-12-24T09:44:00.934Z,79.75
2022-12-24T09:46:48.972Z,79.85
2022-12-24T09:49:40.747Z,79.84
2022-12-24T09:52:36.943Z,79.91
2022-12-24T09:55:27.948Z,80.01
2022-12-24T09:58:29.433Z,79.86
2022-12-24T10:01:19.447Z,80.44
2022-12-24T10:04:17.010Z,80.15
2022-12-24T10:07:50.041Z,80.32
2022-12-24T10:10:51.409Z,80.41
2022-12-24T10:13:41.380Z,80.29
2022-12-24T10:17:10.741Z,80.57
2022-12-24T10:20:11.689Z,80.28
2022-12-24T10:23:01.484Z,80.40
2022-12-24T10:26:02.102Z,80.45
2022-12-24T10:28:52.254Z,80.22
2022-12-24T10:32:04.684Z,80.17
2022-12-24T10:35:04.358Z,80.50
2022-12-24T10:37:52.660Z,80.50
2022-12-24T10:40:47.463Z,80.52
2022-12-24T10:43:37.485Z,80.70
2022-12-24T10:46:31.261Z,80.71
2022-12-24T10:49:27.543Z,80.64
2022-12-24T10:52:24.615Z,80.84
2022-12-24T11:02:45.369Z,80.87
2022-12-24T11:05:46.732Z,80.61
2022-12-24T11:16:44.361Z,80.48
2022-12-24T11:19:36.295Z,80.93
2022-12-24T11:41:00.690Z,80.31
2022-12-24T11:44:08.477Z,80.06
2022-12-24T11:47:53.430Z,80.63
2022-12-24T11:51:33.865Z,80.28
2022-12-24T11:58:49.979Z,79.90
2022-12-24T12:05:37.330Z,79.93
2022-12-24T12:09:20.924Z,79.58
2022-12-24T12:15:54.116Z,79.96
2022-12-24T12:23:00.964Z,80.00
2022-12-24T12:26:37.572Z,79.28
2022-12-24T13:09:44.821Z,79.28
2022-12-24T13:27:28.299Z,79.23
2022-12-24T13:31:03.107Z,79.08
2022-12-24T13:34:15.904Z,79.03
2022-12-24T13:37:49.951Z,79.00
2022-12-24T13:40:48.115Z,79.37
2022-12-24T13:44:10.804Z,78.85
2022-12-24T13:51:03.794Z,78.85
2022-12-24T13:57:48.979Z,78.60
2022-12-24T14:01:45.945Z,78.42
2022-12-24T14:10:58.324Z,78.28
2022-12-24T14:15:01.235Z,78.51
2022-12-24T14:18:52.460Z,78.49
2022-12-24T14:41:12.992Z,78.74
2022-12-24T14:49:24.902Z,77.92
2022-12-24T14:57:01.486Z,77.34
2022-12-24T15:11:04.538Z,76.56
2022-12-24T15:13:58.336Z,77.17
2022-12-24T15:16:59.747Z,76.54
2022-12-24T15:19:50.383Z,76.99
2022-12-24T15:22:37.170Z,77.29
2022-12-24T15:25:29.736Z,77.39
2022-12-24T15:28:18.286Z,76.91
2022-12-24T15:31:10.404Z,76.73
2022-12-24T15:33:59.208Z,76.89
2022-12-24T15:36:46.206Z,76.92
2022-12-24T15:39:35.852Z,76.87
2022-12-24T15:42:23.776Z,77.45
2022-12-24T15:45:27.188Z,76.86
2022-12-24T15:48:23.638Z,77.16
2022-12-24T15:51:10.483Z,77.10
2022-12-24T15:54:00.055Z,76.93
2022-12-24T15:56:48.324Z,77.05
2022-12-24T15:59:36.137Z,76.69
2022-12-24T16:02:36.642Z,76.58
2022-12-24T16:05:26.375Z,76.97
2022-12-24T16:08:16.789Z,77.36
2022-12-24T16:11:03.503Z,77.15
2022-12-24T16:14:18.790Z,76.68
2022-12-24T16:17:16.559Z,77.40
2022-12-24T16:20:06.289Z,77.02
2022-12-24T16:22:53.128Z,77.42
2022-12-24T16:25:39.936Z,76.92
2022-12-24T16:28:26.842Z,76.91
2022-12-24T16:31:18.849Z,77.07
2022-12-24T16:34:14.787Z,77.05
2022-12-24T16:37:01.620Z,77.16
2022-12-24T16:39:54.364Z,76.91
2022-12-24T16:42:59.757Z,76.83
2022-12-24T16:45:47.133Z,77.21
2022-12-24T16:48:36.721Z,76.75
2022-12-24T16:51:23.508Z,76.60
2022-12-24T16:54:16.986Z,77.26
2022-12-24T16:57:03.851Z,77.50
2022-12-24T16:59:51.710Z,76.61
2022-12-24T17:02:39.734Z,77.45
2022-12-24T17:05:26.760Z,77.29
2022-12-24T17:08:14.148Z,77.14
2022-12-24T17:11:00.971Z,77.25
2022-12-24T17:13:47.761Z,77.06
2022-12-24T17:16:34.632Z,76.98
2022-12-24T17:19:21.500Z,77.56
2022-12-24T17:22:08.253Z,77.34
2022-12-24T17:24:55.481Z,77.47
2022-12-24T17:27:42.319Z,77.52
2022-12-24T17:30:29.074Z,77.19
2022-12-24T17:33:15.908Z,77.22
2022-12-24T17:36:06.344Z,77.61
2022-12-24T17:38:53.329Z,77.67
2022-12-24T17:41:40.285Z,77.44
2022-12-24T17:44:27.106Z,77.63
2022-12-24T17:47:13.873Z,77.78
2022-12-24T17:50:00.768Z,77.90
2022-12-24T17:52:47.655Z,77.49
2022-12-24T17:55:34.505Z,77.37
2022-12-24T17:58:21.338Z,77.30
2022-12-24T18:01:14.211Z,77.57
2022-12-24T18:04:03.015Z,77.40
2022-12-24T18:06:57.786Z,77.76
2022-12-24T18:09:55.048Z,77.49
2022-12-24T18:12:44.051Z,77.88
2022-12-24T18:15:33.992Z,77.73
2022-12-24T18:18:20.965Z,77.58
2022-12-24T18:24:09.152Z,77.84
2022-12-24T18:26:56.625Z,77.64
2022-12-24T18:29:43.932Z,77.79
2022-12-24T18:32:34.233Z,77.63
2022-12-24T18:35:22.512Z,77.77
2022-12-24T18:38:09.509Z,77.66
2022-12-24T18:41:02.270Z,78.03
2022-12-24T18:43:49.621Z,77.96
2022-12-24T18:46:36.430Z,77.58
2022-12-24T18:49:23.283Z,78.07
2022-12-24T18:52:11.216Z,78.23
2022-12-24T18:54:58.162Z,77.91
2022-12-24T18:57:46.446Z,78.35
2022-12-24T19:00:38.664Z,77.78
2022-12-24T19:03:40.012Z,78.20
2022-12-24T19:06:27.272Z,78.24
2022-12-24T19:12:33.085Z,78.07
2022-12-24T19:15:22.354Z,78.43
2022-12-24T19:18:10.624Z,77.89
2022-12-24T19:20:57.821Z,78.23
2022-12-24T19:23:45.561Z,78.11
2022-12-24T19:26:36.865Z,78.21
2022-12-24T19:29:23.676Z,78.43
2022-12-24T19:32:10.743Z,78.07
2022-12-24T19:34:59.711Z,78.13
2022-12-24T19:37:46.619Z,77.95
2022-12-24T19:40:37.615Z,78.16
2022-12-24T19:43:26.797Z,78.33
2022-12-24T19:46:17.560Z,78.39
2022-12-24T19:49:07.139Z,78.14
2022-12-24T19:51:54.899Z,78.26
2022-12-24T19:54:44.171Z,78.12
2022-12-24T19:57:42.585Z,78.02
2022-12-24T20:00:29.776Z,78.43
2022-12-24T20:03:18.706Z,77.90
2022-12-24T20:06:12.133Z,78.33
2022-12-24T20:09:13.284Z,78.34
2022-12-24T20:12:10.633Z,78.35
2022-12-24T20:15:07.461Z,78.90
2022-12-24T20:17:54.491Z,78.75
2022-12-24T20:20:46.021Z,78.97
2022-12-24T20:23:33.263Z,79.07
2022-12-24T20:26:26.179Z,78.61
2022-12-24T20:29:17.984Z,78.69
2022-12-24T20:32:08.360Z,78.33
2022-12-24T20:34:55.293Z,78.23
2022-12-24T20:37:46.432Z,78.41
2022-12-24T20:40:40.609Z,78.47
2022-12-24T20:43:32.483Z,78.24
2022-12-24T20:46:32.138Z,78.27
2022-12-24T20:49:19.254Z,78.24
2022-12-24T20:53:01.063Z,77.92
2022-12-24T20:55:23.999Z,77.53
2022-12-24T20:58:15.113Z,77.53
2022-12-24T21:01:19.567Z,78.18
2022-12-24T21:05:02.941Z,77.61
2022-12-24T21:07:29.298Z,77.89
2022-12-24T21:10:29.017Z,77.52
2022-12-24T21:13:28.582Z,77.99
2022-12-24T21:16:24.983Z,77.66
2022-12-24T21:19:36.808Z,77.49
2022-12-24T21:22:25.953Z,77.32
2022-12-24T21:25:15.817Z,77.60
2022-12-24T21:28:05.721Z,77.37
2022-12-24T21:30:53.209Z,77.65
2022-12-24T21:33:45.313Z,77.38
2022-12-24T21:36:33.784Z,77.80
2022-12-24T21:39:20.751Z,77.31
2022-12-24T21:42:07.775Z,77.60
2022-12-24T21:44:56.796Z,77.61
2022-12-24T21:47:52.567Z,77.55
2022-12-24T21:50:57.655Z,77.67
2022-12-24T21:54:03.107Z,77.45
2022-12-24T21:57:09.333Z,77.49
2022-12-24T22:00:17.799Z,77.66
2022-12-24T22:03:04.806Z,77.57
2022-12-24T22:05:51.709Z,77.69
2022-12-24T22:08:57.149Z,77.61
2022-12-24T22:11:54.312Z,77.56
2022-12-24T22:14:41.536Z,77.10
2022-12-24T22:17:28.750Z,77.51
2022-12-24T22:20:18.724Z,77.29
2022-12-24T22:23:05.992Z,77.71
2022-12-24T22:25:52.770Z,77.19
2022-12-24T22:28:39.624Z,77.75
2022-12-24T22:31:26.763Z,77.55
2022-12-24T22:34:14.511Z,77.61
2022-12-24T22:37:01.321Z,78.04
2022-12-24T22:39:48.170Z,77.87
2022-12-24T22:42:35.125Z,77.68
2022-12-24T22:45:22.790Z,77.84
2022-12-24T22:48:11.188Z,78.01
2022-12-24T22:50:58.043Z,77.60
2022-12-24T22:53:48.567Z,78.02
2022-12-24T22:56:40.736Z,77.31
2022-12-24T22:59:28.197Z,77.76
2022-12-24T23:02:15.384Z,77.95
2022-12-24T23:05:02.359Z,77.96
2022-12-24T23:07:49.165Z,77.98
2022-12-24T23:10:36.878Z,77.73
2022-12-24T23:13:44.856Z,78.05
2022-12-24T23:16:32.499Z,77.84
2022-12-24T23:19:19.300Z,77.73
2022-12-24T23:22:06.323Z,77.61
2022-12-24T23:24:53.157Z,77.78
2022-12-24T23:27:40.024Z,78.05
2022-12-24T23:30:26.799Z,77.90
2022-12-24T23:33:13.632Z,77.72
2022-12-24T23:36:02.185Z,78.19
2022-12-24T23:38:49.006Z,77.64
2022-12-24T23:41:35.784Z,77.78
2022-12-24T23:44:28.193Z,77.94
2022-12-24T23:47:19.206Z,77.70
2022-12-24T23:50:06.576Z,77.93
2022-12-24T23:52:53.500Z,78.13
2022-12-24T23:55:40.566Z,78.34
2022-12-24T23:58:27.423Z,78.43
